Lincoln, Massachusetts
Current Conditions -  °F | °C
As of 10:56 PM on Sunday 25 Jan 2015 (Local Time) from KBED Reporting Station
Clear Clear  
Wind Chill:   Ceiling: Unl
Heat Index: 18°   Visibility: 10mi
Dew Point:   Wind: 9mph
Humidity: 52%   Direction: 360°N
Pressure: 30"   Gusts: NA
Location:  42.43°N, 71.3°W
Report Text: KBED 260356Z AUTO 36008KT 10SM CLR M08/M16 A3000 RMK AO2 SLP175 T10781161 TSNO
Loading
Personal Weather Stations






























Interactive Weather Map New forecast layout! Learn more

10-Day Weather Forecast

Advertisements
Track Severe Weather on mobile